createdAt,value
2019-02-18T00:00:29.053Z,25.40
2019-02-18T00:02:58.173Z,25.17
2019-02-18T00:05:27.264Z,22.93
2019-02-18T00:07:56.326Z,24.53
2019-02-18T00:10:41.530Z,24.40
2019-02-18T00:13:10.586Z,24.07
2019-02-18T00:15:39.657Z,24.13
2019-02-18T00:18:15.606Z,24.73
2019-02-18T00:20:44.661Z,25.13
2019-02-18T00:23:13.726Z,24.30
2019-02-18T00:25:42.810Z,25.17
2019-02-18T00:28:11.890Z,25.07
2019-02-18T00:30:41.524Z,24.10
2019-02-18T00:33:10.681Z,23.37
2019-02-18T00:35:39.899Z,26.70
2019-02-18T00:38:08.994Z,26.13
2019-02-18T00:40:38.113Z,26.77
2019-02-18T00:43:08.111Z,26.40
2019-02-18T00:45:37.190Z,21.63
2019-02-18T00:48:06.278Z,27.53
2019-02-18T00:50:35.332Z,23.47
2019-02-18T00:53:04.420Z,25.67
2019-02-18T00:55:33.502Z,26.80
2019-02-18T00:58:03.814Z,25.90
2019-02-18T01:00:32.912Z,25.83
2019-02-18T01:03:01.959Z,27.63
2019-02-18T01:05:31.074Z,25.47
2019-02-18T01:08:00.327Z,26.43
2019-02-18T01:10:29.402Z,26.70
2019-02-18T01:12:58.741Z,22.63
2019-02-18T01:15:27.788Z,25.20
2019-02-18T01:17:56.909Z,25.73
2019-02-18T01:20:26.242Z,26.67
2019-02-18T01:22:55.327Z,26.90
2019-02-18T01:25:24.381Z,28.60
2019-02-18T01:27:53.691Z,31.13
2019-02-18T01:30:23.042Z,30.63
2019-02-18T01:32:52.088Z,31.37
2019-02-18T01:35:21.178Z,28.80
2019-02-18T01:37:50.233Z,31.63
2019-02-18T01:40:19.304Z,30.27
2019-02-18T01:42:48.390Z,31.70
2019-02-18T01:45:17.441Z,29.67
2019-02-18T01:47:46.611Z,31.13
2019-02-18T01:50:15.663Z,29.07
2019-02-18T01:52:44.726Z,30.40
2019-02-18T01:55:13.861Z,27.53
2019-02-18T01:57:42.916Z,29.33
2019-02-18T02:00:15.115Z,30.40
2019-02-18T02:02:44.180Z,28.30
2019-02-18T02:05:14.651Z,29.30
2019-02-18T02:07:43.809Z,30.80
2019-02-18T02:10:15.343Z,29.57
2019-02-18T02:12:44.464Z,29.83
2019-02-18T02:15:28.626Z,31.40
2019-02-18T02:17:58.054Z,33.87
2019-02-18T02:20:27.183Z,35.03
2019-02-18T02:22:56.268Z,33.80
2019-02-18T02:25:25.362Z,31.60
2019-02-18T02:27:54.458Z,34.30
2019-02-18T02:30:23.510Z,29.67
2019-02-18T02:32:52.630Z,32.07
2019-02-18T02:35:21.783Z,29.53
2019-02-18T02:37:50.918Z,25.33
2019-02-18T02:40:20.102Z,29.40
2019-02-18T02:42:49.496Z,31.73
2019-02-18T02:45:18.581Z,30.53
2019-02-18T02:47:47.782Z,31.80
2019-02-18T02:50:16.832Z,28.93
2019-02-18T02:52:45.914Z,32.20
2019-02-18T02:55:15.002Z,31.77
2019-02-18T02:57:44.086Z,34.00
2019-02-18T03:00:16.973Z,30.77
2019-02-18T03:02:46.069Z,31.77
2019-02-18T03:05:15.171Z,30.87
2019-02-18T03:07:44.308Z,32.13
2019-02-18T03:10:13.750Z,32.50
2019-02-18T03:12:42.809Z,32.77
2019-02-18T03:15:14.763Z,33.13
2019-02-18T03:18:03.558Z,34.40
2019-02-18T03:20:32.878Z,32.57
2019-02-18T03:23:01.928Z,32.40
2019-02-18T03:25:32.039Z,31.60
2019-02-18T03:28:07.356Z,30.63
2019-02-18T03:30:38.973Z,32.47
2019-02-18T03:33:10.614Z,32.63
2019-02-18T03:35:39.785Z,27.80
2019-02-18T03:38:09.159Z,29.80
2019-02-18T03:40:38.248Z,31.77
2019-02-18T03:43:07.313Z,33.03
2019-02-18T03:45:36.686Z,30.90
2019-02-18T03:48:05.885Z,30.03
2019-02-18T03:50:34.974Z,27.93
2019-02-18T03:53:04.104Z,32.03
2019-02-18T03:55:33.167Z,32.00
2019-02-18T03:58:02.226Z,31.27
2019-02-18T04:00:31.374Z,30.87
2019-02-18T04:03:00.474Z,28.87
2019-02-18T04:05:29.528Z,31.07
2019-02-18T04:07:58.612Z,31.13
2019-02-18T04:10:27.720Z,28.50
2019-02-18T04:12:56.843Z,30.87
2019-02-18T04:15:25.968Z,32.37
2019-02-18T04:17:55.108Z,32.27
2019-02-18T04:20:24.207Z,30.30
2019-02-18T04:22:53.278Z,32.47
2019-02-18T04:25:22.404Z,31.60
2019-02-18T04:27:51.493Z,32.83
2019-02-18T04:30:20.863Z,30.50
2019-02-18T04:32:49.957Z,30.60
2019-02-18T04:35:19.058Z,31.97
2019-02-18T04:37:48.153Z,33.90
2019-02-18T04:40:17.252Z,30.57
2019-02-18T04:42:46.423Z,29.07
2019-02-18T04:45:15.561Z,30.60
2019-02-18T04:47:44.646Z,31.87
2019-02-18T04:50:13.811Z,30.80
2019-02-18T04:52:42.877Z,31.40
2019-02-18T04:55:11.938Z,32.83
2019-02-18T04:57:42.720Z,29.23
2019-02-18T05:00:12.405Z,34.93
2019-02-18T05:02:41.464Z,32.10
2019-02-18T05:05:10.799Z,34.07
2019-02-18T05:07:40.133Z,35.20
2019-02-18T05:10:13.052Z,29.43
2019-02-18T05:12:42.125Z,32.90
2019-02-18T05:15:11.177Z,30.23
2019-02-18T05:17:40.405Z,33.77
2019-02-18T05:20:09.507Z,35.17
2019-02-18T05:22:38.673Z,30.77
2019-02-18T05:25:09.042Z,34.60
2019-02-18T05:27:38.354Z,30.10
2019-02-18T05:30:11.725Z,28.77
2019-02-18T05:32:40.816Z,32.13
2019-02-18T05:35:09.978Z,26.67
2019-02-18T05:37:39.074Z,34.43
2019-02-18T05:40:08.428Z,30.77
2019-02-18T05:42:37.547Z,35.23
2019-02-18T05:45:08.401Z,36.13
2019-02-18T05:47:37.510Z,35.10
2019-02-18T05:50:07.915Z,30.67
2019-02-18T05:52:36.996Z,36.37
2019-02-18T05:55:06.830Z,32.83
2019-02-18T05:57:35.998Z,31.97
2019-02-18T06:00:11.136Z,34.40
2019-02-18T06:02:40.769Z,33.33
2019-02-18T06:05:09.830Z,33.20
2019-02-18T06:07:38.965Z,33.07
2019-02-18T06:10:11.329Z,34.30
2019-02-18T06:12:40.423Z,32.57
2019-02-18T06:15:09.994Z,35.07
2019-02-18T06:17:39.120Z,36.17
2019-02-18T06:20:09.459Z,32.37
2019-02-18T06:22:40.606Z,37.40
2019-02-18T06:25:09.732Z,33.77
2019-02-18T06:27:38.875Z,34.67
2019-02-18T06:30:10.842Z,37.67
2019-02-18T06:32:39.933Z,37.33
2019-02-18T06:35:09.389Z,35.43
2019-02-18T06:37:38.480Z,35.17
2019-02-18T06:40:08.752Z,35.70
2019-02-18T06:42:37.808Z,34.43
2019-02-18T06:45:26.955Z,36.00
2019-02-18T06:47:56.973Z,35.93
2019-02-18T06:50:26.077Z,37.23
2019-02-18T06:52:55.129Z,35.03
2019-02-18T06:55:24.267Z,37.67
2019-02-18T06:58:13.142Z,34.57
2019-02-18T07:00:43.873Z,35.73
2019-02-18T07:03:26.642Z,33.90
2019-02-18T07:06:03.225Z,36.63
2019-02-18T07:08:43.272Z,36.47
2019-02-18T07:11:13.985Z,40.03
2019-02-18T07:13:43.083Z,36.40
2019-02-18T07:16:12.162Z,38.30
2019-02-18T07:18:41.262Z,38.23
2019-02-18T07:21:10.633Z,37.10
2019-02-18T07:23:39.737Z,35.67
2019-02-18T07:26:08.813Z,32.93
2019-02-18T07:28:37.961Z,38.07
2019-02-18T07:31:07.052Z,35.57
2019-02-18T07:33:36.130Z,39.80
2019-02-18T07:36:05.509Z,36.93
2019-02-18T07:38:34.920Z,42.43
2019-02-18T07:41:03.977Z,43.63
2019-02-18T07:43:33.062Z,37.67
2019-02-18T07:46:02.216Z,40.93
2019-02-18T07:48:31.290Z,40.77
2019-02-18T07:51:00.344Z,40.33
2019-02-18T07:53:29.400Z,37.20
2019-02-18T07:55:58.463Z,36.20
2019-02-18T07:58:27.509Z,35.67
2019-02-18T08:00:56.879Z,34.93
2019-02-18T08:03:25.924Z,36.00
2019-02-18T08:05:55.011Z,33.63
2019-02-18T08:08:24.144Z,30.87
2019-02-18T08:10:53.219Z,32.20
2019-02-18T08:13:22.269Z,33.40
2019-02-18T08:15:51.323Z,32.57
2019-02-18T08:18:20.422Z,32.47
2019-02-18T08:20:49.464Z,30.67
2019-02-18T08:23:18.551Z,29.93
2019-02-18T08:25:47.593Z,28.97
2019-02-18T08:28:16.656Z,28.13
2019-02-18T08:30:45.906Z,29.47
2019-02-18T08:33:15.016Z,29.67
2019-02-18T08:35:44.064Z,28.63
2019-02-18T08:38:13.170Z,28.83
2019-02-18T08:40:42.221Z,29.53
2019-02-18T08:43:11.294Z,28.93
2019-02-18T08:45:40.353Z,27.37
2019-02-18T08:48:09.438Z,25.33
2019-02-18T08:50:38.492Z,27.30
2019-02-18T08:53:07.536Z,26.27
2019-02-18T08:55:36.585Z,27.67
2019-02-18T08:58:05.665Z,25.47
2019-02-18T09:00:34.716Z,26.97
2019-02-18T09:03:03.805Z,27.07
2019-02-18T09:05:32.880Z,24.80
2019-02-18T09:08:01.978Z,23.73
2019-02-18T09:10:33.834Z,26.90
2019-02-18T09:13:01.776Z,24.13
2019-02-18T09:15:30.824Z,21.73
2019-02-18T09:17:59.958Z,24.60
2019-02-18T09:20:29.008Z,23.23
2019-02-18T09:23:02.621Z,22.73
2019-02-18T09:25:33.625Z,21.73
2019-02-18T09:28:02.706Z,21.93
2019-02-18T09:30:33.438Z,21.33
2019-02-18T09:33:02.483Z,21.37
2019-02-18T09:35:31.540Z,23.77
2019-02-18T09:38:00.622Z,21.13
2019-02-18T09:40:30.517Z,22.20
2019-02-18T09:42:59.565Z,22.87
2019-02-18T09:45:28.793Z,21.40
2019-02-18T09:47:57.837Z,21.27
2019-02-18T09:50:26.880Z,23.60
2019-02-18T09:52:55.965Z,22.97
2019-02-18T09:55:25.306Z,25.67
2019-02-18T09:57:54.391Z,24.10
2019-02-18T10:00:42.870Z,23.30
2019-02-18T10:03:11.964Z,23.73
2019-02-18T10:05:41.097Z,21.53
2019-02-18T10:08:10.245Z,23.97
2019-02-18T10:10:39.331Z,25.20
2019-02-18T10:13:08.413Z,24.93
2019-02-18T10:15:37.460Z,23.93
2019-02-18T10:18:06.539Z,23.90
2019-02-18T10:20:35.592Z,24.50
2019-02-18T10:23:04.649Z,23.87
2019-02-18T10:25:33.760Z,21.63
2019-02-18T10:28:02.834Z,21.07
2019-02-18T10:30:31.885Z,19.73
2019-02-18T10:33:01.006Z,19.67
2019-02-18T10:35:30.125Z,20.67
2019-02-18T10:37:59.177Z,21.10
2019-02-18T10:40:28.269Z,21.13
2019-02-18T10:42:57.314Z,19.63
2019-02-18T10:45:26.390Z,20.80
2019-02-18T10:47:55.445Z,19.93
2019-02-18T10:50:24.602Z,20.33
2019-02-18T10:52:53.648Z,19.77
2019-02-18T10:55:23.004Z,18.07
2019-02-18T10:57:52.169Z,18.47
2019-02-18T11:00:21.246Z,17.73
2019-02-18T11:02:50.343Z,15.43
2019-02-18T11:05:19.430Z,16.00
2019-02-18T11:07:48.561Z,16.17
2019-02-18T11:10:18.127Z,14.97
2019-02-18T11:12:47.723Z,16.47
2019-02-18T11:15:17.054Z,15.97
2019-02-18T11:17:46.483Z,15.43
2019-02-18T11:20:15.547Z,15.53
2019-02-18T11:22:44.722Z,15.67
2019-02-18T11:25:14.978Z,14.77
2019-02-18T11:27:44.115Z,15.77
2019-02-18T11:30:17.443Z,14.93
2019-02-18T11:32:46.600Z,15.83
2019-02-18T11:35:15.765Z,15.17
2019-02-18T11:37:44.925Z,15.93
2019-02-18T11:40:16.296Z,16.13
2019-02-18T11:42:45.467Z,16.63
2019-02-18T11:45:15.777Z,15.43
2019-02-18T11:47:44.979Z,15.73
2019-02-18T11:50:14.870Z,16.63
2019-02-18T11:52:44.049Z,16.83
2019-02-18T11:55:13.837Z,15.80
2019-02-18T11:57:43.373Z,17.53
2019-02-18T12:00:16.173Z,16.07
2019-02-18T12:02:45.302Z,16.83
2019-02-18T12:05:14.432Z,17.00
2019-02-18T12:07:43.558Z,17.30
2019-02-18T12:10:13.664Z,17.60
2019-02-18T12:12:42.990Z,16.37
2019-02-18T12:15:15.673Z,16.10
2019-02-18T12:17:44.792Z,16.23
2019-02-18T12:20:17.161Z,16.53
2019-02-18T12:22:46.225Z,15.97
2019-02-18T12:25:15.335Z,17.00
2019-02-18T12:27:44.805Z,16.10
2019-02-18T12:30:15.419Z,17.47
2019-02-18T12:32:44.644Z,17.00
2019-02-18T12:35:13.783Z,17.33
2019-02-18T12:37:42.886Z,17.23
2019-02-18T12:40:14.990Z,17.00
2019-02-18T12:42:44.057Z,16.60
2019-02-18T12:45:13.226Z,16.53
2019-02-18T12:47:42.384Z,15.73
2019-02-18T12:50:12.283Z,17.23
2019-02-18T12:52:41.690Z,16.90
2019-02-18T12:55:14.363Z,15.97
2019-02-18T12:57:43.781Z,17.10
2019-02-18T13:00:15.659Z,18.83
2019-02-18T13:02:45.322Z,17.13
2019-02-18T13:05:14.650Z,18.13
2019-02-18T13:07:43.802Z,17.63
2019-02-18T13:10:13.784Z,17.70
2019-02-18T13:12:43.324Z,16.63
2019-02-18T13:15:16.660Z,17.47
2019-02-18T13:17:46.104Z,18.13
2019-02-18T13:20:15.261Z,18.03
2019-02-18T13:22:44.757Z,18.13
2019-02-18T13:25:13.833Z,18.33
2019-02-18T13:27:43.166Z,17.57
2019-02-18T13:30:20.110Z,16.77
2019-02-18T13:32:49.269Z,17.80
2019-02-18T13:35:18.770Z,18.50
2019-02-18T13:37:47.892Z,17.00
2019-02-18T13:40:16.986Z,18.50
2019-02-18T13:42:46.870Z,16.40
2019-02-18T13:45:16.027Z,17.37
2019-02-18T13:47:45.194Z,16.53
2019-02-18T13:50:14.623Z,16.53
2019-02-18T13:52:43.996Z,18.10
2019-02-18T13:55:13.500Z,16.47
2019-02-18T13:57:42.969Z,18.00
2019-02-18T14:00:18.552Z,17.60
2019-02-18T14:02:47.990Z,17.03
2019-02-18T14:05:18.060Z,17.03
2019-02-18T14:07:47.236Z,17.73
2019-02-18T14:10:16.819Z,17.87
2019-02-18T14:12:45.946Z,15.93
2019-02-18T14:15:16.414Z,17.40
2019-02-18T14:17:45.608Z,16.03
2019-02-18T14:20:15.949Z,16.57
2019-02-18T14:22:45.115Z,23.73
2019-02-18T14:25:14.601Z,19.30
2019-02-18T14:27:43.833Z,18.23
2019-02-18T14:30:16.961Z,18.57
2019-02-18T14:32:46.099Z,24.60
2019-02-18T14:35:17.396Z,16.63
2019-02-18T14:37:46.570Z,15.73
2019-02-18T14:40:17.619Z,16.60
2019-02-18T14:42:46.787Z,16.70
2019-02-18T14:45:16.385Z,16.43
2019-02-18T14:47:45.561Z,21.67
2019-02-18T14:50:17.608Z,18.67
2019-02-18T14:52:47.146Z,18.63
2019-02-18T14:55:16.305Z,17.47
2019-02-18T14:57:45.720Z,18.23
2019-02-18T15:00:18.449Z,17.07
2019-02-18T15:02:47.660Z,16.60
2019-02-18T15:05:16.767Z,18.03
2019-02-18T15:07:46.520Z,15.20
2019-02-18T15:10:15.956Z,15.83
2019-02-18T15:12:45.116Z,16.83
2019-02-18T15:15:14.251Z,16.87
2019-02-18T15:17:43.300Z,14.00
2019-02-18T15:20:12.760Z,15.47
2019-02-18T15:22:42.137Z,15.17
2019-02-18T15:25:11.429Z,16.20
2019-02-18T15:27:40.528Z,13.73
2019-02-18T15:30:13.342Z,16.53
2019-02-18T15:32:42.405Z,16.77
2019-02-18T15:35:11.508Z,17.03
2019-02-18T15:37:40.643Z,15.80
2019-02-18T15:40:10.469Z,16.20
2019-02-18T15:42:42.178Z,14.57
2019-02-18T15:45:10.416Z,16.47
2019-02-18T15:47:39.653Z,15.37
2019-02-18T15:50:11.049Z,17.70
2019-02-18T15:52:40.217Z,16.83
2019-02-18T15:55:09.746Z,20.13
2019-02-18T15:57:38.829Z,20.17
2019-02-18T16:00:13.880Z,19.87
2019-02-18T16:02:43.044Z,21.17
2019-02-18T16:05:13.838Z,20.13
2019-02-18T16:07:42.969Z,20.07
2019-02-18T16:10:12.136Z,20.43
2019-02-18T16:12:41.264Z,22.47
2019-02-18T16:15:11.389Z,23.13
2019-02-18T16:17:40.841Z,24.80
2019-02-18T16:20:12.044Z,23.30
2019-02-18T16:22:41.134Z,20.87
2019-02-18T16:25:16.085Z,23.67
2019-02-18T16:27:45.253Z,23.60
2019-02-18T16:30:15.082Z,23.37
2019-02-18T16:32:44.546Z,22.60
2019-02-18T16:35:16.790Z,20.63
2019-02-18T16:37:45.916Z,23.80
2019-02-18T16:40:17.670Z,23.27
2019-02-18T16:42:46.814Z,26.67
2019-02-18T16:45:15.967Z,24.30
2019-02-18T16:47:45.109Z,27.83
2019-02-18T16:50:14.264Z,25.77
2019-02-18T16:52:43.416Z,27.53
2019-02-18T16:55:14.057Z,32.97
2019-02-18T16:57:43.137Z,28.50
2019-02-18T17:00:16.772Z,27.33
2019-02-18T17:02:45.925Z,30.67
2019-02-18T17:05:15.080Z,29.87
2019-02-18T17:07:44.308Z,30.93
2019-02-18T17:10:13.639Z,31.63
2019-02-18T17:12:43.126Z,28.47
2019-02-18T17:15:13.064Z,30.37
2019-02-18T17:17:42.209Z,29.93
2019-02-18T17:20:11.301Z,28.13
2019-02-18T17:22:40.559Z,28.23
2019-02-18T17:25:11.388Z,29.43
2019-02-18T17:27:40.489Z,25.50
2019-02-18T17:30:12.456Z,24.93
2019-02-18T17:32:41.584Z,25.67
2019-02-18T17:35:14.638Z,25.77
2019-02-18T17:37:43.793Z,24.47
2019-02-18T17:40:13.853Z,25.23
2019-02-18T17:42:43.285Z,21.77
2019-02-18T17:45:17.078Z,21.13
2019-02-18T17:47:46.204Z,21.97
2019-02-18T17:50:16.133Z,23.07
2019-02-18T17:52:45.969Z,22.27
2019-02-18T17:55:19.132Z,22.87
2019-02-18T17:57:48.307Z,21.30
2019-02-18T18:00:21.587Z,23.07
2019-02-18T18:02:51.245Z,21.93
2019-02-18T18:05:20.398Z,21.53
2019-02-18T18:07:49.516Z,21.27
2019-02-18T18:10:18.983Z,20.13
2019-02-18T18:12:48.101Z,21.83
2019-02-18T18:15:18.814Z,22.60
2019-02-18T18:17:47.977Z,21.73
2019-02-18T18:20:17.153Z,19.70
2019-02-18T18:22:46.307Z,19.27
2019-02-18T18:25:15.860Z,18.57
2019-02-18T18:27:45.001Z,19.73
2019-02-18T18:30:18.798Z,18.43
2019-02-18T18:32:47.968Z,19.63
2019-02-18T18:35:17.402Z,19.20
2019-02-18T18:37:46.527Z,18.70
2019-02-18T18:40:19.420Z,19.73
2019-02-18T18:42:48.550Z,20.23
2019-02-18T18:45:17.907Z,20.13
2019-02-18T18:47:47.062Z,24.83
2019-02-18T18:50:21.069Z,23.10
2019-02-18T18:52:50.291Z,22.50
2019-02-18T18:55:19.386Z,22.90
2019-02-18T18:57:48.500Z,22.07
2019-02-18T19:00:24.208Z,22.17
2019-02-18T19:02:53.431Z,20.97
2019-02-18T19:05:22.987Z,20.43
2019-02-18T19:07:52.108Z,19.53
2019-02-18T19:10:21.237Z,20.70
2019-02-18T19:12:50.406Z,21.93
2019-02-18T19:15:19.596Z,20.60
2019-02-18T19:17:48.716Z,21.50
2019-02-18T19:20:17.890Z,21.10
2019-02-18T19:22:47.048Z,20.43
2019-02-18T19:25:16.206Z,21.00
2019-02-18T19:27:45.356Z,22.37
2019-02-18T19:30:26.863Z,21.60
2019-02-18T19:32:55.986Z,24.93
2019-02-18T19:35:25.044Z,24.00
2019-02-18T19:37:54.216Z,30.43
2019-02-18T19:40:23.408Z,21.30
2019-02-18T19:42:52.798Z,24.87
2019-02-18T19:45:25.334Z,24.93
2019-02-18T19:47:54.515Z,28.37
2019-02-18T19:50:23.615Z,25.53
2019-02-18T19:52:53.698Z,28.00
2019-02-18T19:55:22.849Z,27.83
2019-02-18T19:57:51.936Z,25.20
2019-02-18T20:00:21.562Z,25.43
2019-02-18T20:02:50.734Z,24.37
2019-02-18T20:05:19.826Z,26.03
2019-02-18T20:07:49.134Z,23.57
2019-02-18T20:10:18.260Z,23.57
2019-02-18T20:12:47.354Z,25.77
2019-02-18T20:15:16.437Z,23.40
2019-02-18T20:17:45.586Z,26.83
2019-02-18T20:20:16.979Z,25.27
2019-02-18T20:22:46.186Z,26.17
2019-02-18T20:25:15.269Z,24.43
2019-02-18T20:27:44.749Z,28.50
2019-02-18T20:30:15.471Z,27.43
2019-02-18T20:32:44.739Z,27.10
2019-02-18T20:35:14.079Z,29.17
2019-02-18T20:37:43.333Z,29.80
2019-02-18T20:40:12.536Z,28.17
2019-02-18T20:42:42.520Z,27.80
2019-02-18T20:45:12.491Z,28.77
2019-02-18T20:47:41.674Z,28.00
2019-02-18T20:50:12.536Z,28.23
2019-02-18T20:52:41.675Z,28.20
2019-02-18T20:55:14.734Z,26.10
2019-02-18T20:57:43.915Z,26.83
2019-02-18T21:00:21.633Z,28.50
2019-02-18T21:02:50.784Z,27.60
2019-02-18T21:05:19.861Z,31.53
2019-02-18T21:07:49.018Z,30.30
2019-02-18T21:10:20.285Z,30.13
2019-02-18T21:12:49.469Z,29.73
2019-02-18T21:15:18.615Z,29.33
2019-02-18T21:17:48.365Z,32.83
2019-02-18T21:20:17.701Z,30.27
2019-02-18T21:22:47.286Z,31.53
2019-02-18T21:25:16.495Z,30.90
2019-02-18T21:27:45.670Z,30.50
2019-02-18T21:30:18.871Z,28.67
2019-02-18T21:32:47.984Z,31.73
2019-02-18T21:35:17.148Z,28.00
2019-02-18T21:37:46.568Z,31.63
2019-02-18T21:40:15.758Z,31.53
2019-02-18T21:42:46.718Z,30.80
2019-02-18T21:45:16.179Z,28.17
2019-02-18T21:47:45.357Z,31.63
2019-02-18T21:50:14.533Z,31.47
2019-02-18T21:52:43.835Z,29.90
2019-02-18T21:55:13.085Z,30.20
2019-02-18T21:57:42.276Z,29.83
2019-02-18T22:00:18.673Z,28.70
2019-02-18T22:02:48.000Z,27.37
2019-02-18T22:05:17.469Z,31.27
2019-02-18T22:07:46.646Z,26.87
2019-02-18T22:10:15.818Z,28.70
2019-02-18T22:12:44.995Z,26.00
2019-02-18T22:15:14.778Z,27.63
2019-02-18T22:17:43.936Z,28.50
2019-02-18T22:20:14.088Z,27.67
2019-02-18T22:22:43.245Z,26.30
2019-02-18T22:25:13.428Z,27.53
2019-02-18T22:27:42.592Z,26.77
2019-02-18T22:30:15.935Z,27.70
2019-02-18T22:32:45.107Z,26.73
2019-02-18T22:35:15.215Z,25.67
2019-02-18T22:37:44.402Z,27.20
2019-02-18T22:40:13.753Z,24.63
2019-02-18T22:42:42.918Z,26.20
2019-02-18T22:45:12.236Z,25.43
2019-02-18T22:47:41.316Z,27.03
2019-02-18T22:50:11.366Z,27.23
2019-02-18T22:52:40.621Z,26.87
2019-02-18T22:55:10.845Z,26.63
2019-02-18T22:57:40.001Z,26.67
2019-02-18T23:00:25.468Z,26.60
2019-02-18T23:02:54.976Z,27.10
2019-02-18T23:05:24.090Z,25.87
2019-02-18T23:07:53.270Z,27.87
2019-02-18T23:10:22.420Z,27.13
2019-02-18T23:12:51.856Z,27.00
2019-02-18T23:15:21.282Z,25.37
2019-02-18T23:17:50.427Z,24.90
2019-02-18T23:20:19.505Z,24.90
2019-02-18T23:22:48.592Z,26.43
2019-02-18T23:25:17.714Z,24.20
2019-02-18T23:27:46.895Z,25.77
2019-02-18T23:30:16.082Z,24.83
2019-02-18T23:32:45.255Z,24.13
2019-02-18T23:35:14.647Z,24.70
2019-02-18T23:37:43.846Z,23.07
2019-02-18T23:40:13.008Z,26.10
2019-02-18T23:42:42.157Z,24.93
2019-02-18T23:45:11.228Z,26.70
2019-02-18T23:47:42.296Z,24.97
2019-02-18T23:50:11.418Z,25.03
2019-02-18T23:52:40.602Z,23.83
2019-02-18T23:55:09.773Z,26.00
2019-02-18T23:57:38.965Z,23.43
